sensor_id;sensor_type;location;lat;lon;timestamp;pressure;altitude;pressure_sealevel;temperature;humidity
75692;BME280;64307;52.508;6.090;2022-12-11T00:00:19;101228.19;;;0.17;97.64
75692;BME280;64307;52.508;6.090;2022-12-11T00:02:45;101229.16;;;0.04;97.61
75692;BME280;64307;52.508;6.090;2022-12-11T00:05:10;101224.66;;;0.17;97.92
75692;BME280;64307;52.508;6.090;2022-12-11T00:07:35;101219.53;;;0.24;97.37
75692;BME280;64307;52.508;6.090;2022-12-11T00:10:01;101215.97;;;0.23;97.28
75692;BME280;64307;52.508;6.090;2022-12-11T00:12:29;101227.41;;;0.25;96.72
75692;BME280;64307;52.508;6.090;2022-12-11T00:14:54;101221.13;;;0.25;97.07
75692;BME280;64307;52.508;6.090;2022-12-11T00:17:20;101227.41;;;0.25;97.83
75692;BME280;64307;52.508;6.090;2022-12-11T00:19:45;101220.34;;;0.24;97.61
75692;BME280;64307;52.508;6.090;2022-12-11T00:22:10;101219.06;;;0.30;97.32
75692;BME280;64307;52.508;6.090;2022-12-11T00:24:36;101219.06;;;0.30;96.97
75692;BME280;64307;52.508;6.090;2022-12-11T00:27:01;101219.53;;;0.32;97.09
75692;BME280;64307;52.508;6.090;2022-12-11T00:29:26;101222.91;;;0.29;96.88
75692;BME280;64307;52.508;6.090;2022-12-11T00:31:52;101221.63;;;0.35;96.80
75692;BME280;64307;52.508;6.090;2022-12-11T00:34:17;101207.63;;;0.28;96.82
75692;BME280;64307;52.508;6.090;2022-12-11T00:36:42;101221.97;;;0.34;96.71
75692;BME280;64307;52.508;6.090;2022-12-11T00:39:07;101223.09;;;0.33;96.86
75692;BME280;64307;52.508;6.090;2022-12-11T00:41:33;101224.22;;;0.40;97.07
75692;BME280;64307;52.508;6.090;2022-12-11T00:43:58;101220.84;;;0.43;96.97
75692;BME280;64307;52.508;6.090;2022-12-11T00:46:23;101217.63;;;0.41;95.99
75692;BME280;64307;52.508;6.090;2022-12-11T00:48:49;101213.25;;;0.32;96.41
75692;BME280;64307;52.508;6.090;2022-12-11T00:51:15;101218.09;;;0.43;96.70
75692;BME280;64307;52.508;6.090;2022-12-11T00:53:41;101213.75;;;0.42;96.72
75692;BME280;64307;52.508;6.090;2022-12-11T00:56:12;101212.31;;;0.36;96.79
75692;BME280;64307;52.508;6.090;2022-12-11T00:58:37;101209.41;;;0.50;96.36
75692;BME280;64307;52.508;6.090;2022-12-11T01:01:08;101214.88;;;0.50;96.34
75692;BME280;64307;52.508;6.090;2022-12-11T01:03:34;101212.31;;;0.45;96.09
75692;BME280;64307;52.508;6.090;2022-12-11T01:05:59;101215.06;;;0.45;96.14
75692;BME280;64307;52.508;6.090;2022-12-11T01:08:24;101214.41;;;0.56;96.41
75692;BME280;64307;52.508;6.090;2022-12-11T01:10:49;101209.09;;;0.51;96.37
75692;BME280;64307;52.508;6.090;2022-12-11T01:13:15;101218.78;;;0.57;96.38
75692;BME280;64307;52.508;6.090;2022-12-11T01:15:43;101219.75;;;0.61;95.71
75692;BME280;64307;52.508;6.090;2022-12-11T01:18:13;101217.66;;;0.67;96.06
75692;BME280;64307;52.508;6.090;2022-12-11T01:20:40;101216.03;;;0.74;95.87
75692;BME280;64307;52.508;6.090;2022-12-11T01:23:06;101215.22;;;0.74;95.34
75692;BME280;64307;52.508;6.090;2022-12-11T01:25:34;101220.69;;;0.74;95.90
75692;BME280;64307;52.508;6.090;2022-12-11T01:28:02;101215.25;;;0.65;95.78
75692;BME280;64307;52.508;6.090;2022-12-11T01:30:27;101225.06;;;0.66;95.59
75692;BME280;64307;52.508;6.090;2022-12-11T01:32:53;101217.16;;;0.65;95.90
75692;BME280;64307;52.508;6.090;2022-12-11T01:35:18;101216.69;;;0.71;95.62
75692;BME280;64307;52.508;6.090;2022-12-11T01:37:44;101215.56;;;0.72;95.67
75692;BME280;64307;52.508;6.090;2022-12-11T01:40:12;101210.06;;;0.72;95.96
75692;BME280;64307;52.508;6.090;2022-12-11T01:42:38;101213.63;;;0.81;95.88
75692;BME280;64307;52.508;6.090;2022-12-11T01:47:41;101205.41;;;0.73;95.85
75692;BME280;64307;52.508;6.090;2022-12-11T01:50:06;101204.59;;;0.90;95.86
75692;BME280;64307;52.508;6.090;2022-12-11T01:52:32;101206.22;;;0.82;95.65
75692;BME280;64307;52.508;6.090;2022-12-11T01:54:57;101203.63;;;0.86;95.79
75692;BME280;64307;52.508;6.090;2022-12-11T01:57:23;101210.41;;;0.79;95.70
75692;BME280;64307;52.508;6.090;2022-12-11T01:59:49;101211.19;;;0.89;95.74
75692;BME280;64307;52.508;6.090;2022-12-11T02:02:19;101204.25;;;0.91;95.16
75692;BME280;64307;52.508;6.090;2022-12-11T02:04:46;101203.63;;;0.86;95.23
75692;BME280;64307;52.508;6.090;2022-12-11T02:07:12;101190.75;;;0.77;95.87
75692;BME280;64307;52.508;6.090;2022-12-11T02:09:40;101199.94;;;0.81;95.57
75692;BME280;64307;52.508;6.090;2022-12-11T02:12:25;101211.69;;;0.91;95.63
75692;BME280;64307;52.508;6.090;2022-12-11T02:17:34;101209.94;;;0.86;95.24
75692;BME280;64307;52.508;6.090;2022-12-11T02:20:22;101201.03;;;0.80;95.77
75692;BME280;64307;52.508;6.090;2022-12-11T02:25:53;101189.44;;;0.66;96.68
75692;BME280;64307;52.508;6.090;2022-12-11T02:28:43;101191.38;;;0.74;96.24
75692;BME280;64307;52.508;6.090;2022-12-11T02:36:28;101195.41;;;0.77;96.61
75692;BME280;64307;52.508;6.090;2022-12-11T02:38:55;101189.44;;;0.83;96.53
75692;BME280;64307;52.508;6.090;2022-12-11T02:41:24;101188.78;;;0.87;96.18
75692;BME280;64307;52.508;6.090;2022-12-11T02:43:51;101200.72;;;0.91;96.04
75692;BME280;64307;52.508;6.090;2022-12-11T02:46:18;101196.22;;;0.86;95.95
75692;BME280;64307;52.508;6.090;2022-12-11T02:48:45;101178.31;;;0.63;95.74
75692;BME280;64307;52.508;6.090;2022-12-11T02:51:14;101194.78;;;0.80;96.17
75692;BME280;64307;52.508;6.090;2022-12-11T02:53:41;101195.56;;;0.80;95.78
75692;BME280;64307;52.508;6.090;2022-12-11T02:56:11;101193.28;;;0.74;96.06
75692;BME280;64307;52.508;6.090;2022-12-11T02:58:43;101194.59;;;0.76;96.32
75692;BME280;64307;52.508;6.090;2022-12-11T03:01:09;101184.59;;;0.80;96.22
75692;BME280;64307;52.508;6.090;2022-12-11T03:03:37;101188.78;;;0.87;96.35
75692;BME280;64307;52.508;6.090;2022-12-11T03:06:03;101174.78;;;0.79;96.65
75692;BME280;64307;52.508;6.090;2022-12-11T03:08:28;101178.31;;;0.89;95.97
75692;BME280;64307;52.508;6.090;2022-12-11T03:10:53;101178.16;;;0.94;95.76
75692;BME280;64307;52.508;6.090;2022-12-11T03:13:20;101173.47;;;0.94;95.92
75692;BME280;64307;52.508;6.090;2022-12-11T03:18:57;101168.63;;;0.91;95.65
75692;BME280;64307;52.508;6.090;2022-12-11T03:26:36;101160.06;;;0.93;96.07
75692;BME280;64307;52.508;6.090;2022-12-11T03:31:45;101157.19;;;0.89;95.47
75692;BME280;64307;52.508;6.090;2022-12-11T03:34:26;101150.41;;;0.87;95.87
75692;BME280;64307;52.508;6.090;2022-12-11T03:36:55;101160.72;;;0.90;95.10
75692;BME280;64307;52.508;6.090;2022-12-11T03:39:48;101158.16;;;0.84;96.01
75692;BME280;64307;52.508;6.090;2022-12-11T03:42:12;101154.59;;;0.93;95.54
75692;BME280;64307;52.508;6.090;2022-12-11T03:44:39;101152.31;;;0.95;95.95
75692;BME280;64307;52.508;6.090;2022-12-11T03:47:07;101150.06;;;0.97;95.47
75692;BME280;64307;52.508;6.090;2022-12-11T03:49:39;101163.63;;;0.93;95.64
75692;BME280;64307;52.508;6.090;2022-12-11T03:52:06;101162.38;;;0.82;95.96
75692;BME280;64307;52.508;6.090;2022-12-11T03:54:34;101156.84;;;0.91;95.69
75692;BME280;64307;52.508;6.090;2022-12-11T03:57:00;101161.84;;;0.97;96.04
75692;BME280;64307;52.508;6.090;2022-12-11T03:59:27;101162.19;;;0.87;95.89
75692;BME280;64307;52.508;6.090;2022-12-11T04:01:53;101155.41;;;0.93;95.54
75692;BME280;64307;52.508;6.090;2022-12-11T04:04:18;101168.47;;;0.88;96.38
75692;BME280;64307;52.508;6.090;2022-12-11T04:06:44;101166.38;;;0.93;96.11
75692;BME280;64307;52.508;6.090;2022-12-11T04:09:10;101170.75;;;0.94;96.21
75692;BME280;64307;52.508;6.090;2022-12-11T04:11:35;101161.69;;;0.94;95.97
75692;BME280;64307;52.508;6.090;2022-12-11T04:14:07;101167.81;;;0.99;95.42
75692;BME280;64307;52.508;6.090;2022-12-11T04:16:52;101171.84;;;0.93;96.27
75692;BME280;64307;52.508;6.090;2022-12-11T04:19:18;101167.00;;;0.99;95.97
75692;BME280;64307;52.508;6.090;2022-12-11T04:22:02;101168.78;;;0.95;95.89
75692;BME280;64307;52.508;6.090;2022-12-11T04:24:57;101172.50;;;0.90;96.56
75692;BME280;64307;52.508;6.090;2022-12-11T04:27:23;101170.88;;;0.89;96.21
75692;BME280;64307;52.508;6.090;2022-12-11T04:30:10;101161.56;;;0.90;96.30
75692;BME280;64307;52.508;6.090;2022-12-11T04:32:36;101164.78;;;0.92;96.22
75692;BME280;64307;52.508;6.090;2022-12-11T04:35:02;101158.97;;;0.94;96.08
75692;BME280;64307;52.508;6.090;2022-12-11T04:37:28;101150.88;;;0.89;96.70
75692;BME280;64307;52.508;6.090;2022-12-11T04:39:56;101156.84;;;0.91;96.45
75692;BME280;64307;52.508;6.090;2022-12-11T04:42:21;101148.47;;;0.87;96.29
75692;BME280;64307;52.508;6.090;2022-12-11T04:44:46;101140.41;;;0.91;96.29
75692;BME280;64307;52.508;6.090;2022-12-11T04:47:12;101132.19;;;0.91;96.20
75692;BME280;64307;52.508;6.090;2022-12-11T04:49:37;101141.53;;;0.90;96.28
75692;BME280;64307;52.508;6.090;2022-12-11T04:52:02;101126.06;;;0.85;96.87
75692;BME280;64307;52.508;6.090;2022-12-11T04:54:29;101125.22;;;1.02;95.78
75692;BME280;64307;52.508;6.090;2022-12-11T04:56:54;101121.69;;;1.01;95.87
75692;BME280;64307;52.508;6.090;2022-12-11T04:59:19;101125.72;;;0.95;95.94
75692;BME280;64307;52.508;6.090;2022-12-11T05:01:44;101123.94;;;0.99;96.40
75692;BME280;64307;52.508;6.090;2022-12-11T05:04:10;101123.59;;;1.01;95.95
75692;BME280;64307;52.508;6.090;2022-12-11T05:06:35;101127.03;;;0.89;96.21
75692;BME280;64307;52.508;6.090;2022-12-11T05:09:00;101125.22;;;1.02;96.00
75692;BME280;64307;52.508;6.090;2022-12-11T05:11:25;101131.34;;;1.07;96.09
75692;BME280;64307;52.508;6.090;2022-12-11T05:13:52;101127.81;;;1.07;96.07
75692;BME280;64307;52.508;6.090;2022-12-11T05:16:17;101124.09;;;1.03;95.52
75692;BME280;64307;52.508;6.090;2022-12-11T05:18:42;101118.44;;;1.08;96.12
75692;BME280;64307;52.508;6.090;2022-12-11T05:21:10;101122.63;;;1.14;95.31
75692;BME280;64307;52.508;6.090;2022-12-11T05:23:37;101122.28;;;1.15;95.96
75692;BME280;64307;52.508;6.090;2022-12-11T05:26:09;101129.88;;;1.18;95.82
75692;BME280;64307;52.508;6.090;2022-12-11T05:28:37;101123.91;;;1.16;95.59
75692;BME280;64307;52.508;6.090;2022-12-11T05:31:05;101121.81;;;1.13;95.72
75692;BME280;64307;52.508;6.090;2022-12-11T05:33:31;101132.94;;;1.17;96.06
75692;BME280;64307;52.508;6.090;2022-12-11T05:35:57;101122.28;;;1.15;95.70
75692;BME280;64307;52.508;6.090;2022-12-11T05:38:22;101122.47;;;1.10;96.05
75692;BME280;64307;52.508;6.090;2022-12-11T05:41:03;101121.63;;;1.18;95.54
75692;BME280;64307;52.508;6.090;2022-12-11T05:43:30;101131.66;;;1.14;95.97
75692;BME280;64307;52.508;6.090;2022-12-11T05:48:32;101129.06;;;1.18;95.82
75692;BME280;64307;52.508;6.090;2022-12-11T05:50:59;101132.13;;;1.16;95.79
75692;BME280;64307;52.508;6.090;2022-12-11T05:53:25;101131.31;;;1.16;95.50
75692;BME280;64307;52.508;6.090;2022-12-11T05:55:51;101124.75;;;1.00;95.76
75692;BME280;64307;52.508;6.090;2022-12-11T05:58:16;101125.69;;;1.12;95.51
75692;BME280;64307;52.508;6.090;2022-12-11T06:00:42;101136.19;;;1.10;96.22
75692;BME280;64307;52.508;6.090;2022-12-11T06:03:08;101127.63;;;1.12;96.00
75692;BME280;64307;52.508;6.090;2022-12-11T06:05:37;101130.06;;;1.05;95.83
75692;BME280;64307;52.508;6.090;2022-12-11T06:08:02;101118.94;;;1.01;95.77
75692;BME280;64307;52.508;6.090;2022-12-11T06:10:28;101123.91;;;1.08;96.27
75692;BME280;64307;52.508;6.090;2022-12-11T06:12:53;101113.13;;;1.03;95.82
75692;BME280;64307;52.508;6.090;2022-12-11T06:15:18;101112.63;;;1.01;96.27
75692;BME280;64307;52.508;6.090;2022-12-11T06:17:43;101116.84;;;1.07;96.09
75692;BME280;64307;52.508;6.090;2022-12-11T06:20:09;101112.94;;;1.16;96.13
75692;BME280;64307;52.508;6.090;2022-12-11T06:22:34;101109.41;;;0.99;95.47
75692;BME280;64307;52.508;6.090;2022-12-11T06:24:59;101122.00;;;1.08;95.47
75692;BME280;64307;52.508;6.090;2022-12-11T06:27:25;101120.69;;;1.06;95.46
75692;BME280;64307;52.508;6.090;2022-12-11T06:29:51;101119.06;;;1.13;96.34
75692;BME280;64307;52.508;6.090;2022-12-11T06:32:16;101104.13;;;0.94;96.01
75692;BME280;64307;52.508;6.090;2022-12-11T06:34:42;101113.75;;;1.08;96.38
75692;BME280;64307;52.508;6.090;2022-12-11T06:37:07;101109.09;;;1.09;95.75
75692;BME280;64307;52.508;6.090;2022-12-11T06:39:32;101117.94;;;1.14;95.73
75692;BME280;64307;52.508;6.090;2022-12-11T06:41:57;101123.78;;;1.04;96.13
75692;BME280;64307;52.508;6.090;2022-12-11T06:44:23;101121.50;;;1.15;95.47
75692;BME280;64307;52.508;6.090;2022-12-11T06:46:49;101121.03;;;1.13;95.37
75692;BME280;64307;52.508;6.090;2022-12-11T06:49:14;101119.25;;;1.08;95.66
75692;BME280;64307;52.508;6.090;2022-12-11T06:51:39;101123.28;;;1.11;95.99
75692;BME280;64307;52.508;6.090;2022-12-11T06:54:04;101121.66;;;1.10;95.98
75692;BME280;64307;52.508;6.090;2022-12-11T06:56:30;101111.50;;;1.10;95.88
75692;BME280;64307;52.508;6.090;2022-12-11T06:58:55;101122.94;;;1.12;95.78
75692;BME280;64307;52.508;6.090;2022-12-11T07:01:26;101117.81;;;1.11;95.37
75692;BME280;64307;52.508;6.090;2022-12-11T07:03:53;101119.25;;;1.08;95.86
75692;BME280;64307;52.508;6.090;2022-12-11T07:06:19;101116.00;;;1.15;95.39
75692;BME280;64307;52.508;6.090;2022-12-11T07:08:44;101119.59;;;1.07;95.41
75692;BME280;64307;52.508;6.090;2022-12-11T07:11:12;101124.88;;;1.12;95.39
75692;BME280;64307;52.508;6.090;2022-12-11T07:13:38;101116.19;;;1.10;95.15
75692;BME280;64307;52.508;6.090;2022-12-11T07:16:06;101129.72;;;1.15;95.69
75692;BME280;64307;52.508;6.090;2022-12-11T07:18:35;101129.53;;;1.20;95.23
75692;BME280;64307;52.508;6.090;2022-12-11T07:21:01;101138.72;;;1.15;95.06
75692;BME280;64307;52.508;6.090;2022-12-11T07:23:27;101145.19;;;1.19;95.63
75692;BME280;64307;52.508;6.090;2022-12-11T07:25:53;101139.88;;;1.23;95.04
75692;BME280;64307;52.508;6.090;2022-12-11T07:28:19;101146.19;;;1.15;95.73
75692;BME280;64307;52.508;6.090;2022-12-11T07:30:44;101144.91;;;1.04;95.47
75692;BME280;64307;52.508;6.090;2022-12-11T07:33:09;101146.00;;;1.11;95.09
75692;BME280;64307;52.508;6.090;2022-12-11T07:35:35;101143.13;;;1.08;95.30
75692;BME280;64307;52.508;6.090;2022-12-11T07:38:00;101157.28;;;1.18;95.41
75692;BME280;64307;52.508;6.090;2022-12-11T07:40:25;101142.44;;;1.19;95.38
75692;BME280;64307;52.508;6.090;2022-12-11T07:42:51;101138.91;;;1.19;95.19
75692;BME280;64307;52.508;6.090;2022-12-11T07:45:17;101153.72;;;1.26;94.46
75692;BME280;64307;52.508;6.090;2022-12-11T07:47:42;101150.34;;;1.21;95.13
75692;BME280;64307;52.508;6.090;2022-12-11T07:50:07;101146.31;;;1.18;94.67
75692;BME280;64307;52.508;6.090;2022-12-11T07:52:33;101151.00;;;1.18;94.64
75692;BME280;64307;52.508;6.090;2022-12-11T07:54:58;101157.94;;;1.15;95.50
75692;BME280;64307;52.508;6.090;2022-12-11T07:57:24;101156.97;;;1.20;95.52
75692;BME280;64307;52.508;6.090;2022-12-11T07:59:49;101162.75;;;1.27;95.30
75692;BME280;64307;52.508;6.090;2022-12-11T08:02:14;101158.88;;;1.19;94.97
75692;BME280;64307;52.508;6.090;2022-12-11T08:04:40;101152.28;;;1.20;95.40
75692;BME280;64307;52.508;6.090;2022-12-11T08:07:05;101155.38;;;1.10;95.38
75692;BME280;64307;52.508;6.090;2022-12-11T08:09:30;101147.28;;;1.22;95.12
75692;BME280;64307;52.508;6.090;2022-12-11T08:11:55;101154.69;;;1.22;95.83
75692;BME280;64307;52.508;6.090;2022-12-11T08:14:21;101150.84;;;1.23;95.70
75692;BME280;64307;52.508;6.090;2022-12-11T08:16:46;101154.53;;;1.27;95.14
75692;BME280;64307;52.508;6.090;2022-12-11T08:19:12;101143.09;;;1.25;95.16
75692;BME280;64307;52.508;6.090;2022-12-11T08:21:37;101153.22;;;1.33;95.29
75692;BME280;64307;52.508;6.090;2022-12-11T08:24:03;101147.59;;;1.29;94.95
75692;BME280;64307;52.508;6.090;2022-12-11T08:26:29;101147.25;;;1.31;94.55
75692;BME280;64307;52.508;6.090;2022-12-11T08:28:59;101151.28;;;1.33;95.14
75692;BME280;64307;52.508;6.090;2022-12-11T08:31:25;101145.97;;;1.28;95.38
75692;BME280;64307;52.508;6.090;2022-12-11T08:33:51;101148.72;;;1.28;95.29
75692;BME280;64307;52.508;6.090;2022-12-11T08:36:21;101147.06;;;1.36;95.27
75692;BME280;64307;52.508;6.090;2022-12-11T08:38:47;101143.06;;;1.33;95.63
75692;BME280;64307;52.508;6.090;2022-12-11T08:41:15;101143.69;;;1.39;94.87
75692;BME280;64307;52.508;6.090;2022-12-11T08:43:41;101142.53;;;1.40;94.61
75692;BME280;64307;52.508;6.090;2022-12-11T08:46:07;101149.81;;;1.36;95.00
75692;BME280;64307;52.508;6.090;2022-12-11T08:48:34;101154.81;;;1.34;95.08
75692;BME280;64307;52.508;6.090;2022-12-11T08:51:02;101148.22;;;1.35;94.55
75692;BME280;64307;52.508;6.090;2022-12-11T08:53:28;101152.72;;;1.39;94.39
75692;BME280;64307;52.508;6.090;2022-12-11T08:55:59;101148.97;;;1.44;94.51
75692;BME280;64307;52.508;6.090;2022-12-11T08:58:24;101150.41;;;1.50;94.68
75692;BME280;64307;52.508;6.090;2022-12-11T09:00:49;101143.34;;;1.40;93.79
75692;BME280;64307;52.508;6.090;2022-12-11T09:03:15;101145.38;;;1.52;94.29
75692;BME280;64307;52.508;6.090;2022-12-11T09:05:40;101148.31;;;1.47;93.87
75692;BME280;64307;52.508;6.090;2022-12-11T09:08:05;101139.31;;;1.38;93.50
75692;BME280;64307;52.508;6.090;2022-12-11T09:10:31;101143.94;;;1.54;93.03
75692;BME280;64307;52.508;6.090;2022-12-11T09:12:56;101141.53;;;1.53;94.04
75692;BME280;64307;52.508;6.090;2022-12-11T09:15:21;101136.38;;;1.51;93.49
75692;BME280;64307;52.508;6.090;2022-12-11T09:17:47;101138.19;;;1.39;93.96
75692;BME280;64307;52.508;6.090;2022-12-11T09:20:12;101126.84;;;1.49;94.25
75692;BME280;64307;52.508;6.090;2022-12-11T09:22:37;101136.69;;;1.50;93.89
75692;BME280;64307;52.508;6.090;2022-12-11T09:25:04;101133.16;;;1.49;94.28
75692;BME280;64307;52.508;6.090;2022-12-11T09:27:29;101134.59;;;1.47;93.35
75692;BME280;64307;52.508;6.090;2022-12-11T09:29:54;101132.03;;;1.42;93.95
75692;BME280;64307;52.508;6.090;2022-12-11T09:32:20;101134.13;;;1.45;93.75
75692;BME280;64307;52.508;6.090;2022-12-11T09:34:45;101138.34;;;1.42;93.54
75692;BME280;64307;52.508;6.090;2022-12-11T09:37:10;101134.16;;;1.36;93.39
75692;BME280;64307;52.508;6.090;2022-12-11T09:39:36;101141.53;;;1.53;93.04
75692;BME280;64307;52.508;6.090;2022-12-11T09:42:14;101134.72;;;1.59;92.99
75692;BME280;64307;52.508;6.090;2022-12-11T09:44:46;101139.56;;;1.62;92.91
75692;BME280;64307;52.508;6.090;2022-12-11T09:49:49;101132.88;;;1.72;92.00
75692;BME280;64307;52.508;6.090;2022-12-11T09:52:22;101132.50;;;1.82;91.63
75692;BME280;64307;52.508;6.090;2022-12-11T09:54:58;101130.94;;;1.72;92.20
75692;BME280;64307;52.508;6.090;2022-12-11T10:00:40;101139.56;;;1.62;92.66
75692;BME280;64307;52.508;6.090;2022-12-11T10:03:19;101142.91;;;1.67;93.07
75692;BME280;64307;52.508;6.090;2022-12-11T10:06:37;101136.63;;;1.67;92.96
75692;BME280;64307;52.508;6.090;2022-12-11T10:09:14;101142.09;;;1.67;92.41
75692;BME280;64307;52.508;6.090;2022-12-11T10:14:27;101131.50;;;1.57;90.42
75692;BME280;64307;52.508;6.090;2022-12-11T10:17:08;101136.13;;;1.65;90.49
75692;BME280;64307;52.508;6.090;2022-12-11T10:19:36;101136.91;;;1.74;89.68
75692;BME280;64307;52.508;6.090;2022-12-11T10:22:02;101143.34;;;1.78;89.70
75692;BME280;64307;52.508;6.090;2022-12-11T10:24:36;101152.06;;;1.80;88.72
75692;BME280;64307;52.508;6.090;2022-12-11T10:27:17;101140.03;;;1.93;89.19
75692;BME280;64307;52.508;6.090;2022-12-11T10:29:44;101139.38;;;1.96;88.88
75692;BME280;64307;52.508;6.090;2022-12-11T10:32:19;101148.25;;;1.93;88.35
75692;BME280;64307;52.508;6.090;2022-12-11T10:34:48;101142.63;;;1.90;88.70
75692;BME280;64307;52.508;6.090;2022-12-11T10:37:15;101147.25;;;1.68;87.59
75692;BME280;64307;52.508;6.090;2022-12-11T10:39:40;101154.34;;;1.78;87.79
75692;BME280;64307;52.508;6.090;2022-12-11T10:42:17;101141.38;;;1.79;87.90
75692;BME280;64307;52.508;6.090;2022-12-11T10:44:54;101133.88;;;1.67;87.63
75692;BME280;64307;52.508;6.090;2022-12-11T10:47:20;101135.03;;;1.66;88.15
75692;BME280;64307;52.508;6.090;2022-12-11T10:55:07;101126.88;;;1.78;88.51
75692;BME280;64307;52.508;6.090;2022-12-11T10:57:42;101115.75;;;1.75;87.96
75692;BME280;64307;52.508;6.090;2022-12-11T11:00:28;101131.81;;;1.64;88.70
75692;BME280;64307;52.508;6.090;2022-12-11T11:02:54;101125.28;;;1.68;89.21
75692;BME280;64307;52.508;6.090;2022-12-11T11:05:36;101129.06;;;1.64;88.15
75692;BME280;64307;52.508;6.090;2022-12-11T11:08:14;101129.81;;;1.73;88.55
75692;BME280;64307;52.508;6.090;2022-12-11T11:10:58;101134.47;;;1.73;87.84
75692;BME280;64307;52.508;6.090;2022-12-11T11:13:26;101122.84;;;1.76;87.01
75692;BME280;64307;52.508;6.090;2022-12-11T11:16:06;101117.03;;;1.77;86.62
75692;BME280;64307;52.508;6.090;2022-12-11T11:18:33;101127.63;;;1.58;86.85
75692;BME280;64307;52.508;6.090;2022-12-11T11:20:59;101134.09;;;1.53;87.50
75692;BME280;64307;52.508;6.090;2022-12-11T11:23:26;101136.84;;;1.53;87.52
75692;BME280;64307;52.508;6.090;2022-12-11T11:25:58;101133.28;;;1.53;87.98
75692;BME280;64307;52.508;6.090;2022-12-11T11:28:26;101134.41;;;1.52;87.19
75692;BME280;64307;52.508;6.090;2022-12-11T11:33:34;101126.06;;;1.40;86.70
75692;BME280;64307;52.508;6.090;2022-12-11T11:36:03;101119.47;;;1.41;87.21
75692;BME280;64307;52.508;6.090;2022-12-11T11:41:20;101107.94;;;1.56;86.89
75692;BME280;64307;52.508;6.090;2022-12-11T11:43:52;101104.75;;;1.75;86.66
75692;BME280;64307;52.508;6.090;2022-12-11T11:46:24;101101.78;;;1.59;86.33
75692;BME280;64307;52.508;6.090;2022-12-11T11:51:42;101099.50;;;1.61;86.48
75692;BME280;64307;52.508;6.090;2022-12-11T11:54:22;101093.78;;;1.75;86.79
75692;BME280;64307;52.508;6.090;2022-12-11T11:56:50;101086.19;;;1.80;86.13
75692;BME280;64307;52.508;6.090;2022-12-11T11:59:31;101086.63;;;1.53;85.96
75692;BME280;64307;52.508;6.090;2022-12-11T12:01:58;101086.00;;;1.56;86.81
75692;BME280;64307;52.508;6.090;2022-12-11T12:04:28;101084.00;;;1.65;87.24
75692;BME280;64307;52.508;6.090;2022-12-11T12:09:47;101086.13;;;1.59;86.80
75692;BME280;64307;52.508;6.090;2022-12-11T12:20:11;101089.19;;;1.87;85.70
75692;BME280;64307;52.508;6.090;2022-12-11T12:22:58;101087.50;;;1.74;85.23
75692;BME280;64307;52.508;6.090;2022-12-11T12:28:13;101085.50;;;1.54;86.91
75692;BME280;64307;52.508;6.090;2022-12-11T12:33:59;101080.03;;;1.75;86.49
75692;BME280;64307;52.508;6.090;2022-12-11T12:39:00;101079.28;;;1.74;85.70
75692;BME280;64307;52.508;6.090;2022-12-11T12:41:39;101089.78;;;1.72;85.08
75692;BME280;64307;52.508;6.090;2022-12-11T12:44:17;101081.94;;;1.62;85.94
75692;BME280;64307;52.508;6.090;2022-12-11T12:46:57;101078.97;;;1.67;85.47
75692;BME280;64307;52.508;6.090;2022-12-11T12:49:39;101071.13;;;1.57;86.65
75692;BME280;64307;52.508;6.090;2022-12-11T12:52:31;101065.72;;;1.69;85.70
75692;BME280;64307;52.508;6.090;2022-12-11T12:54:57;101062.31;;;1.72;86.12
75692;BME280;64307;52.508;6.090;2022-12-11T12:57:49;101079.97;;;1.62;86.61
75692;BME280;64307;52.508;6.090;2022-12-11T13:00:39;101076.94;;;1.55;86.48
75692;BME280;64307;52.508;6.090;2022-12-11T13:03:22;101083.72;;;1.58;86.34
75692;BME280;64307;52.508;6.090;2022-12-11T13:06:11;101071.88;;;1.66;87.19
75692;BME280;64307;52.508;6.090;2022-12-11T13:08:41;101076.53;;;1.74;86.73
75692;BME280;64307;52.508;6.090;2022-12-11T13:11:09;101068.28;;;1.74;85.58
75692;BME280;64307;52.508;6.090;2022-12-11T13:13:36;101069.28;;;1.70;86.36
75692;BME280;64307;52.508;6.090;2022-12-11T13:18:45;101076.53;;;1.74;86.93
75692;BME280;64307;52.508;6.090;2022-12-11T13:26:46;101069.88;;;1.75;86.38
75692;BME280;64307;52.508;6.090;2022-12-11T13:29:29;101079.53;;;1.81;86.57
75692;BME280;64307;52.508;6.090;2022-12-11T13:34:51;101071.47;;;1.85;85.81
75692;BME280;64307;52.508;6.090;2022-12-11T13:37:26;101075.59;;;1.70;86.52
75692;BME280;64307;52.508;6.090;2022-12-11T13:39:54;101072.91;;;1.82;86.16
75692;BME280;64307;52.508;6.090;2022-12-11T13:42:30;101074.56;;;1.75;85.21
75692;BME280;64307;52.508;6.090;2022-12-11T13:44:56;101074.72;;;1.78;85.32
75692;BME280;64307;52.508;6.090;2022-12-11T13:47:22;101073.44;;;1.76;85.58
75692;BME280;64307;52.508;6.090;2022-12-11T13:49:53;101082.00;;;1.74;86.12
75692;BME280;64307;52.508;6.090;2022-12-11T13:52:22;101072.63;;;1.75;86.13
75692;BME280;64307;52.508;6.090;2022-12-11T13:54:51;101079.88;;;1.80;86.07
75692;BME280;64307;52.508;6.090;2022-12-11T13:57:20;101080.53;;;1.77;86.08
75692;BME280;64307;52.508;6.090;2022-12-11T13:59:51;101077.13;;;1.80;86.16
75692;BME280;64307;52.508;6.090;2022-12-11T14:04:48;101077.31;;;1.75;86.14
75692;BME280;64307;52.508;6.090;2022-12-11T14:07:21;101069.41;;;1.73;85.49
75692;BME280;64307;52.508;6.090;2022-12-11T14:09:47;101073.00;;;1.65;85.66
75692;BME280;64307;52.508;6.090;2022-12-11T14:12:20;101072.53;;;1.63;86.90
75692;BME280;64307;52.508;6.090;2022-12-11T14:14:49;101078.47;;;1.74;86.24
75692;BME280;64307;52.508;6.090;2022-12-11T14:17:22;101075.84;;;1.77;85.34
75692;BME280;64307;52.508;6.090;2022-12-11T14:19:49;101072.19;;;1.64;86.08
75692;BME280;64307;52.508;6.090;2022-12-11T14:22:17;101080.59;;;1.68;86.04
75692;BME280;64307;52.508;6.090;2022-12-11T14:24:50;101070.09;;;1.70;86.05
75692;BME280;64307;52.508;6.090;2022-12-11T14:27:17;101069.94;;;1.66;87.14
75692;BME280;64307;52.508;6.090;2022-12-11T14:29:43;101071.03;;;1.74;86.61